Novomar — 5BCT2 — position and weather

sailwx.info

Track history (hours):
 
Tides and Currents Weather Stations Pressure Air Temp Water Temp Dewpoint Dewpoint Depression Visibility Wind Speed Wind Dir Waves Ship Positions

Novomar

Last reported at 2017-Jun-27 14:35 UTC. Time now 2017-Jun-27 20:54 UTC.
Position N 56°11' E 012°21'.

Length 89 m; draft 4 m.

Type: Ship. MMSI: 210974000.

Date/timePositionNaut miles runAvg speedWind from/ knotsBaromVisibWave heightAir tempDewpointWater temp
2017-Jun-27 14:35N 56°11' E 012°21'6 9.7
2017-Jun-27 14:00N 56°08' E 012°29'5 9.2
2017-Jun-27 13:31N 56°05' E 012°36'4 8.6
2017-Jun-27 13:01N 56°02' E 012°40'4 8.5
2017-Jun-27 12:31N 55°58' E 012°43'5 9.3
2017-Jun-27 12:00N 55°53' E 012°45'4 8.9
2017-Jun-27 11:31N 55°49' E 012°44'5 9.8
2017-Jun-27 11:01N 55°44' E 012°42'5 9.6
2017-Jun-27 10:30N 55°39' E 012°42'5 9.2
2017-Jun-27 10:01N 55°35' E 012°42'5 9.6
2017-Jun-27 09:31N 55°30' E 012°43'510.3
2017-Jun-27 09:00N 55°25' E 012°42'510.3
2017-Jun-27 08:30N 55°20' E 012°41'5 9.3
2017-Jun-27 08:01N 55°17' E 012°47'510.0
2017-Jun-27 07:29N 55°15' E 012°55'810.2
2017-Jun-27 06:44N 55°09' E 013°04'112 9.4
2017-Jun-26 18:45N 53°31' E 014°38'3 8.6
2017-Jun-26 18:26N 53°28' E 014°36'3 1.7
2017-Jun-26 16:52N 53°26' E 014°35'0 0.0
2017-Jun-26 16:27N 53°26' E 014°35'0 0.0
2017-Jun-26 15:50N 53°26' E 014°35'0 0.0
2017-Jun-26 15:25N 53°26' E 014°35'0 0.0
2017-Jun-26 14:59N 53°26' E 014°35'0 0.0
2017-Jun-26 13:56N 53°26' E 014°35'0 0.0
2017-Jun-26 13:29N 53°26' E 014°35'0 0.0
2017-Jun-26 12:52N 53°26' E 014°35'0 0.0
2017-Jun-26 12:28N 53°26' E 014°35'0 0.0
2017-Jun-26 11:51N 53°26' E 014°35'0 0.0
2017-Jun-26 11:25N 53°26' E 014°35'0 0.0
2017-Jun-26 10:57N 53°26' E 014°35'0 0.0
2017-Jun-26 10:23N 53°26' E 014°35'0 0.0
2017-Jun-26 09:43N 53°26' E 014°35'0 0.0
2017-Jun-26 09:23N 53°26' E 014°35'0 0.0
2017-Jun-26 08:56N 53°26' E 014°35'0 0.0
2017-Jun-26 07:37N 53°26' E 014°35'0 0.0
2017-Jun-26 07:26N 53°26' E 014°35'0 0.0
2017-Jun-26 06:56N 53°26' E 014°35'0 0.0
2017-Jun-26 06:29N 53°26' E 014°35'0 0.0
2017-Jun-26 05:58N 53°26' E 014°35'0 0.0
2017-Jun-26 05:21N 53°26' E 014°35'0 0.0
2017-Jun-26 04:59N 53°26' E 014°35'0 0.0
2017-Jun-26 02:09N 53°26' E 014°35'0 0.6
2017-Jun-26 01:57N 53°26' E 014°35'3 6.3
2017-Jun-26 01:26N 53°29' E 014°37'79 7.6
2017-Jun-25 15:02N 54°46' E 015°10'0 9.5
2017-Jun-25 15:00N 54°46' E 015°10'6 9.6
2017-Jun-25 14:22N 54°51' E 015°15'14 9.8
2017-Jun-25 12:54N 55°04' E 015°28'610.0
2017-Jun-25 12:17N 55°09' E 015°34'3 9.9
2017-Jun-25 11:57N 55°12' E 015°37'5 9.8
2017-Jun-25 11:28N 55°16' E 015°41'5 9.7
2017-Jun-25 11:00N 55°20' E 015°45'5 9.6
2017-Jun-25 10:25N 55°24' E 015°50'4 9.7
2017-Jun-25 10:00N 55°28' E 015°54'5 9.6
2017-Jun-25 09:30N 55°32' E 015°58'5 9.7
2017-Jun-25 09:01N 55°36' E 016°02'5 9.5
2017-Jun-25 08:30N 55°40' E 016°07'5 9.4
2017-Jun-25 08:01N 55°44' E 016°11'5 9.2
2017-Jun-25 07:30N 55°48' E 016°15'5 9.2
2017-Jun-25 07:01N 55°52' E 016°20'5 9.2
2017-Jun-25 06:31N 55°56' E 016°24'5 9.2
2017-Jun-25 06:00N 55°60' E 016°29'5 9.1
2017-Jun-25 05:30N 56°03' E 016°34'5 9.1
2017-Jun-25 05:01N 56°06' E 016°40'5 9.0
2017-Jun-25 04:30N 56°10' E 016°45'5 9.2
2017-Jun-25 04:01N 56°14' E 016°48'202 9.6
2017-Jun-24 07:01N 59°16' E 019°30'0 8.5
2017-Jun-24 07:00N 59°17' E 019°30'5 8.9
2017-Jun-24 06:30N 59°21' E 019°34'4 9.1
2017-Jun-24 06:00N 59°25' E 019°38'5 9.3
2017-Jun-24 05:31N 59°29' E 019°43'5 9.4
2017-Jun-24 05:00N 59°33' E 019°44'5 9.4
2017-Jun-24 04:30N 59°38' E 019°45'5 9.4
2017-Jun-24 04:01N 59°42' E 019°41'5 9.9
2017-Jun-24 03:31N 59°46' E 019°35'5 9.8
2017-Jun-24 03:01N 59°50' E 019°30'5 9.9
2017-Jun-24 02:31N 59°54' E 019°24'5 9.6
2017-Jun-24 02:01N 59°58' E 019°18'5 9.5
2017-Jun-24 01:31N 60°02' E 019°13'5 9.6
2017-Jun-24 01:00N 60°06' E 019°08'5 9.7
2017-Jun-24 00:30N 60°10' E 019°02'5 9.7
2017-Jun-24 00:00N 60°15' E 019°01'5 9.8
2017-Jun-23 23:30N 60°20' E 019°00'5 9.9
2017-Jun-23 23:00N 60°25' E 018°60'510.1
2017-Jun-23 22:30N 60°30' E 018°60'5 9.9
2017-Jun-23 22:00N 60°35' E 019°02'5 9.7
2017-Jun-23 21:30N 60°39' E 019°04'5 9.6
2017-Jun-23 21:00N 60°44' E 019°06'5 9.6
2017-Jun-23 20:30N 60°49' E 019°09'5 9.7
2017-Jun-23 20:00N 60°53' E 019°12'5 9.8
2017-Jun-23 19:27N 60°58' E 019°15'510.0
2017-Jun-23 18:59N 61°03' E 019°17'510.1
2017-Jun-23 18:29N 61°08' E 019°20'610.3
2017-Jun-23 17:55N 61°13' E 019°23'410.4
2017-Jun-23 17:30N 61°18' E 019°25'510.4
2017-Jun-23 17:00N 61°23' E 019°28'510.4
2017-Jun-23 16:30N 61°28' E 019°31'510.4
2017-Jun-23 16:00N 61°33' E 019°33'510.2
2017-Jun-23 15:30N 61°38' E 019°36'510.2
2017-Jun-23 15:00N 61°43' E 019°38'1010.4
2017-Jun-23 14:00N 61°53' E 019°44'510.3
2017-Jun-23 13:30N 61°58' E 019°46'710.3
2017-Jun-23 12:52N 62°04' E 019°50'2210.3
2017-Jun-23 10:44N 62°26' E 020°00'1310.3
2017-Jun-23 09:30N 62°38' E 020°07'510.4
2017-Jun-23 09:00N 62°43' E 020°09'510.4
2017-Jun-23 08:30N 62°48' E 020°12'66 9.6
2017-Jun-23 01:39N 63°43' E 021°30'210.5
2017-Jun-23 01:30N 63°44' E 021°33'510.3
2017-Jun-23 01:00N 63°47' E 021°42'510.3
2017-Jun-23 00:31N 63°50' E 021°52'510.3
2017-Jun-23 00:00N 63°54' E 022°01'510.2
2017-Jun-22 23:30N 63°57' E 022°10'510.1
2017-Jun-22 23:00N 64°00' E 022°18'510.1
2017-Jun-22 22:30N 64°03' E 022°28'510.2
2017-Jun-22 22:00N 64°07' E 022°36'510.1
2017-Jun-22 21:30N 64°10' E 022°45'510.1
2017-Jun-22 21:00N 64°13' E 022°54'510.0
2017-Jun-22 20:31N 64°16' E 023°04'510.2
2017-Jun-22 20:00N 64°19' E 023°13'510.0
2017-Jun-22 19:30N 64°22' E 023°22'510.0
2017-Jun-22 19:00N 64°25' E 023°31'5 9.9
2017-Jun-22 18:30N 64°28' E 023°40'5 9.9
2017-Jun-22 18:00N 64°32' E 023°48'5 9.8
2017-Jun-22 17:30N 64°35' E 023°57'5 9.6
2017-Jun-22 17:00N 64°38' E 024°06'5 9.2
2017-Jun-22 16:30N 64°39' E 024°16'4 7.3
2017-Jun-22 16:00N 64°39' E 024°25'0 0.0
2017-Jun-22 15:27N 64°39' E 024°25'0 0.0
2017-Jun-22 14:57N 64°39' E 024°25'0 0.0
2017-Jun-22 14:30N 64°39' E 024°25'0 0.0
2017-Jun-22 13:30N 64°39' E 024°25'0 0.0
2017-Jun-22 13:00N 64°39' E 024°25'0 0.0
2017-Jun-22 12:30N 64°39' E 024°25'0 0.0
2017-Jun-22 12:00N 64°39' E 024°25'0 0.0
2017-Jun-22 11:30N 64°39' E 024°25'0 0.0
2017-Jun-22 11:00N 64°39' E 024°25'0 0.0
2017-Jun-22 10:27N 64°39' E 024°25'0 0.0
2017-Jun-22 10:00N 64°39' E 024°25'0 0.0
2017-Jun-22 09:30N 64°39' E 024°25'0 0.0
2017-Jun-22 09:00N 64°39' E 024°25'0 0.0
2017-Jun-22 08:30N 64°39' E 024°25'0 0.0
2017-Jun-22 08:00N 64°39' E 024°25'0 0.1
2017-Jun-22 07:30N 64°39' E 024°25'0 0.1
2017-Jun-22 06:57N 64°39' E 024°25'0 0.0
2017-Jun-22 06:30N 64°39' E 024°25'0 0.0
2017-Jun-22 06:00N 64°39' E 024°25'0 0.1
2017-Jun-22 05:21N 64°39' E 024°25'0 0.0
2017-Jun-22 05:00N 64°39' E 024°25'0 0.0
2017-Jun-22 04:30N 64°39' E 024°25'0 0.0
2017-Jun-22 04:00N 64°39' E 024°25'0 0.0
2017-Jun-22 03:30N 64°39' E 024°25'0 0.0
2017-Jun-22 03:00N 64°39' E 024°25'0 0.0
2017-Jun-22 02:30N 64°39' E 024°25'0 0.0
2017-Jun-22 02:00N 64°39' E 024°25'0 0.0
2017-Jun-22 01:30N 64°39' E 024°25'0 0.0
2017-Jun-22 01:00N 64°39' E 024°25'0 0.0
2017-Jun-22 00:30N 64°39' E 024°25'0 0.0
2017-Jun-22 00:00N 64°39' E 024°25'0 0.0
2017-Jun-21 23:30N 64°39' E 024°25'0 0.0
2017-Jun-21 23:00N 64°39' E 024°25'0 0.0
2017-Jun-21 22:30N 64°39' E 024°25'0 0.0
2017-Jun-21 22:00N 64°39' E 024°25'0 0.0
2017-Jun-21 21:30N 64°39' E 024°25'0 0.0
2017-Jun-21 21:00N 64°39' E 024°25'0 0.0
2017-Jun-21 20:30N 64°39' E 024°25'0 0.0
2017-Jun-21 20:00N 64°39' E 024°25'0 0.0
2017-Jun-21 19:30N 64°39' E 024°25'0 0.0
2017-Jun-21 19:00N 64°39' E 024°25'0 0.0
2017-Jun-21 18:30N 64°39' E 024°25'0 0.0
2017-Jun-21 18:00N 64°39' E 024°25'0 0.0
2017-Jun-21 17:27N 64°39' E 024°25'0 0.0
2017-Jun-21 16:57N 64°39' E 024°25'0 0.0
2017-Jun-21 16:30N 64°39' E 024°25'0 0.0
2017-Jun-21 16:00N 64°39' E 024°25'0 0.0
2017-Jun-21 15:30N 64°39' E 024°25'0 0.0
2017-Jun-21 15:00N 64°39' E 024°25'0 0.0
2017-Jun-21 14:30N 64°39' E 024°25'0 0.0
2017-Jun-21 13:30N 64°39' E 024°25'0 0.0
2017-Jun-21 13:00N 64°39' E 024°25'0 0.0
2017-Jun-21 12:30N 64°39' E 024°25'0 0.0
2017-Jun-21 12:00N 64°39' E 024°25'0 0.0
2017-Jun-21 11:30N 64°39' E 024°25'0 0.0
2017-Jun-21 11:00N 64°39' E 024°25'0 0.0
2017-Jun-21 10:30N 64°39' E 024°25'0 0.0
2017-Jun-21 10:00N 64°39' E 024°25'0 0.0
2017-Jun-21 09:30N 64°39' E 024°25'0 0.0
2017-Jun-21 09:00N 64°39' E 024°25'0 0.0
2017-Jun-21 08:27N 64°39' E 024°25'0 0.0
2017-Jun-21 08:00N 64°39' E 024°25'0 0.0
2017-Jun-21 07:30N 64°39' E 024°25'0 0.0
2017-Jun-21 07:00N 64°39' E 024°25'0 0.0
2017-Jun-21 06:30N 64°39' E 024°25'0 0.0
2017-Jun-21 06:00N 64°39' E 024°25'0 0.0
2017-Jun-21 05:30N 64°39' E 024°25'0 0.0
2017-Jun-21 05:00N 64°39' E 024°25'0 0.0
2017-Jun-21 04:30N 64°39' E 024°25'0 0.0
2017-Jun-21 04:00N 64°39' E 024°25'0 0.0
2017-Jun-21 03:30N 64°39' E 024°25'0 0.0
2017-Jun-21 03:00N 64°39' E 024°25'0 0.0
2017-Jun-21 02:30N 64°39' E 024°25'0 0.0
2017-Jun-21 02:00N 64°39' E 024°25'0 0.0
2017-Jun-21 01:30N 64°39' E 024°25'0 0.0
2017-Jun-21 01:00N 64°39' E 024°25'0 0.0
2017-Jun-21 00:30N 64°39' E 024°25'0 0.0
2017-Jun-21 00:00N 64°39' E 024°25'0 0.0
2017-Jun-20 23:30N 64°39' E 024°25'0 0.0
2017-Jun-20 23:00N 64°39' E 024°25'0 0.0
2017-Jun-20 22:30N 64°39' E 024°25'0 0.0
2017-Jun-20 21:59N 64°39' E 024°25'0 0.0
2017-Jun-20 21:28N 64°39' E 024°25'0 0.0
2017-Jun-20 20:59N 64°39' E 024°25'0 0.0
2017-Jun-20 20:28N 64°39' E 024°25'0 0.0
2017-Jun-20 19:59N 64°39' E 024°25'0 0.0
2017-Jun-20 19:28N 64°39' E 024°25'0 0.1
2017-Jun-20 19:00N 64°39' E 024°25'1 2.1
2017-Jun-20 18:30N 64°40' E 024°22'5 9.9
2017-Jun-20 18:00N 64°39' E 024°11'2 3.6
2017-Jun-20 17:30N 64°41' E 024°11'0 0.0
2017-Jun-20 17:00N 64°41' E 024°11'0 0.0
2017-Jun-20 16:30N 64°41' E 024°11'0 0.0
2017-Jun-20 16:00N 64°41' E 024°11'0 0.0
2017-Jun-20 15:30N 64°41' E 024°11'0 0.0
2017-Jun-20 15:00N 64°41' E 024°11'0 0.0
2017-Jun-20 14:00N 64°41' E 024°11'0 0.0
2017-Jun-20 13:30N 64°41' E 024°11'0 0.0
2017-Jun-20 13:00N 64°41' E 024°11'0 0.7
2017-Jun-20 12:30N 64°41' E 024°10'5 9.4
2017-Jun-20 12:00N 64°38' E 024°02'510.6
2017-Jun-20 11:30N 64°34' E 023°53'5 9.2
2017-Jun-20 11:00N 64°31' E 023°45'4 8.7
2017-Jun-20 10:30N 64°28' E 023°37'4 8.6
2017-Jun-20 10:00N 64°25' E 023°29'4 8.6
2017-Jun-20 09:30N 64°23' E 023°21'4 8.6
2017-Jun-20 09:00N 64°20' E 023°14'4 8.6
2017-Jun-20 08:30N 64°17' E 023°06'4 8.6
2017-Jun-20 08:00N 64°15' E 022°58'4 8.6
2017-Jun-20 07:30N 64°12' E 022°50'4 8.6
2017-Jun-20 07:00N 64°09' E 022°43'4 8.5
2017-Jun-20 06:30N 64°07' E 022°35'4 8.2
2017-Jun-20 06:00N 64°04' E 022°28'4 8.3
2017-Jun-20 05:30N 64°02' E 022°20'4 8.2
2017-Jun-20 05:00N 63°59' E 022°13'4 8.2
2017-Jun-20 04:30N 63°56' E 022°06'4 8.2
2017-Jun-20 04:00N 63°54' E 021°59'4 8.1
2017-Jun-20 03:30N 63°51' E 021°51'4 8.1
2017-Jun-20 03:00N 63°49' E 021°44'4 8.0
2017-Jun-20 02:30N 63°46' E 021°37'4 8.0
2017-Jun-20 02:00N 63°44' E 021°30'4 7.9
2017-Jun-20 01:30N 63°41' E 021°23'4 8.1
2017-Jun-20 01:00N 63°39' E 021°16'4 8.0
2017-Jun-20 00:30N 63°36' E 021°09'4 7.9
2017-Jun-20 00:00N 63°34' E 021°01'4 8.0
2017-Jun-19 23:30N 63°33' E 020°52'4 7.9
2017-Jun-19 23:00N 63°32' E 020°44'4 8.1
2017-Jun-19 22:30N 63°28' E 020°39'4 7.9
2017-Jun-19 22:00N 63°25' E 020°34'4 8.1
2017-Jun-19 21:30N 63°24' E 020°25'4 8.2
2017-Jun-19 21:00N 63°22' E 020°17'4 8.1
2017-Jun-19 20:30N 63°21' E 020°08'4 8.4
2017-Jun-19 20:00N 63°20' E 019°59'4 8.1
2017-Jun-19 19:30N 63°20' E 019°50'47 1.2
2017-Jun-18 02:46N 62°37' E 019°12'310.1
2017-Jun-18 02:30N 62°34' E 019°12'510.1
2017-Jun-18 02:00N 62°29' E 019°12'610.1
2017-Jun-18 01:26N 62°23' E 019°11'410.2
2017-Jun-18 01:00N 62°19' E 019°11'5 9.9
2017-Jun-18 00:30N 62°14' E 019°11'510.0
2017-Jun-18 00:00N 62°09' E 019°10'6210.0
2017-Jun-17 17:46N 61°06' E 019°05'510.2
2017-Jun-17 17:15N 61°01' E 019°04'310.1
2017-Jun-17 16:59N 60°59' E 019°04'510.1
2017-Jun-17 16:30N 60°54' E 019°03'5 9.9
2017-Jun-17 16:00N 60°49' E 019°03'5 9.6
2017-Jun-17 15:30N 60°44' E 019°03'5 9.7
2017-Jun-17 15:00N 60°39' E 019°02'  
Track history (hours):
 
Tides and Currents Weather Stations Pressure Air Temp Water Temp Dewpoint Dewpoint Depression Visibility Wind Speed Wind Dir Waves Ship Positions

Novomar

Last reported at 2017-Jun-27 14:35 UTC. Time now 2017-Jun-27 20:54 UTC.
Position N 56°11' E 012°21'.

Length 89 m; draft 4 m.

Type: Ship. MMSI: 210974000.

Date/timePositionNaut miles runAvg speedWind from/ knotsBaromVisibWave heightAir tempDewpointWater temp
2017-Jun-27 14:35N 56°11' E 012°21'6 9.7
2017-Jun-27 14:00N 56°08' E 012°29'5 9.2
2017-Jun-27 13:31N 56°05' E 012°36'4 8.6
2017-Jun-27 13:01N 56°02' E 012°40'4 8.5
2017-Jun-27 12:31N 55°58' E 012°43'5 9.3
2017-Jun-27 12:00N 55°53' E 012°45'4 8.9
2017-Jun-27 11:31N 55°49' E 012°44'5 9.8
2017-Jun-27 11:01N 55°44' E 012°42'5 9.6
2017-Jun-27 10:30N 55°39' E 012°42'5 9.2
2017-Jun-27 10:01N 55°35' E 012°42'5 9.6
2017-Jun-27 09:31N 55°30' E 012°43'510.3
2017-Jun-27 09:00N 55°25' E 012°42'510.3
2017-Jun-27 08:30N 55°20' E 012°41'5 9.3
2017-Jun-27 08:01N 55°17' E 012°47'510.0
2017-Jun-27 07:29N 55°15' E 012°55'810.2
2017-Jun-27 06:44N 55°09' E 013°04'112 9.4
2017-Jun-26 18:45N 53°31' E 014°38'3 8.6
2017-Jun-26 18:26N 53°28' E 014°36'3 1.7
2017-Jun-26 16:52N 53°26' E 014°35'0 0.0
2017-Jun-26 16:27N 53°26' E 014°35'0 0.0
2017-Jun-26 15:50N 53°26' E 014°35'0 0.0
2017-Jun-26 15:25N 53°26' E 014°35'0 0.0
2017-Jun-26 14:59N 53°26' E 014°35'0 0.0
2017-Jun-26 13:56N 53°26' E 014°35'0 0.0
2017-Jun-26 13:29N 53°26' E 014°35'0 0.0
2017-Jun-26 12:52N 53°26' E 014°35'0 0.0
2017-Jun-26 12:28N 53°26' E 014°35'0 0.0
2017-Jun-26 11:51N 53°26' E 014°35'0 0.0
2017-Jun-26 11:25N 53°26' E 014°35'0 0.0
2017-Jun-26 10:57N 53°26' E 014°35'0 0.0
2017-Jun-26 10:23N 53°26' E 014°35'0 0.0
2017-Jun-26 09:43N 53°26' E 014°35'0 0.0
2017-Jun-26 09:23N 53°26' E 014°35'0 0.0
2017-Jun-26 08:56N 53°26' E 014°35'0 0.0
2017-Jun-26 07:37N 53°26' E 014°35'0 0.0
2017-Jun-26 07:26N 53°26' E 014°35'0 0.0
2017-Jun-26 06:56N 53°26' E 014°35'0 0.0
2017-Jun-26 06:29N 53°26' E 014°35'0 0.0
2017-Jun-26 05:58N 53°26' E 014°35'0 0.0
2017-Jun-26 05:21N 53°26' E 014°35'0 0.0
2017-Jun-26 04:59N 53°26' E 014°35'0 0.0
2017-Jun-26 02:09N 53°26' E 014°35'0 0.6
2017-Jun-26 01:57N 53°26' E 014°35'3 6.3
2017-Jun-26 01:26N 53°29' E 014°37'79 7.6
2017-Jun-25 15:02N 54°46' E 015°10'0 9.5
2017-Jun-25 15:00N 54°46' E 015°10'6 9.6
2017-Jun-25 14:22N 54°51' E 015°15'14 9.8
2017-Jun-25 12:54N 55°04' E 015°28'610.0
2017-Jun-25 12:17N 55°09' E 015°34'3 9.9
2017-Jun-25 11:57N 55°12' E 015°37'5 9.8
2017-Jun-25 11:28N 55°16' E 015°41'5 9.7
2017-Jun-25 11:00N 55°20' E 015°45'5 9.6
2017-Jun-25 10:25N 55°24' E 015°50'4 9.7
2017-Jun-25 10:00N 55°28' E 015°54'5 9.6
2017-Jun-25 09:30N 55°32' E 015°58'5 9.7
2017-Jun-25 09:01N 55°36' E 016°02'5 9.5
2017-Jun-25 08:30N 55°40' E 016°07'5 9.4
2017-Jun-25 08:01N 55°44' E 016°11'5 9.2
2017-Jun-25 07:30N 55°48' E 016°15'5 9.2
2017-Jun-25 07:01N 55°52' E 016°20'5 9.2
2017-Jun-25 06:31N 55°56' E 016°24'5 9.2
2017-Jun-25 06:00N 55°60' E 016°29'5 9.1
2017-Jun-25 05:30N 56°03' E 016°34'5 9.1
2017-Jun-25 05:01N 56°06' E 016°40'5 9.0
2017-Jun-25 04:30N 56°10' E 016°45'5 9.2
2017-Jun-25 04:01N 56°14' E 016°48'202 9.6
2017-Jun-24 07:01N 59°16' E 019°30'0 8.5
2017-Jun-24 07:00N 59°17' E 019°30'5 8.9
2017-Jun-24 06:30N 59°21' E 019°34'4 9.1
2017-Jun-24 06:00N 59°25' E 019°38'5 9.3
2017-Jun-24 05:31N 59°29' E 019°43'5 9.4
2017-Jun-24 05:00N 59°33' E 019°44'5 9.4
2017-Jun-24 04:30N 59°38' E 019°45'5 9.4
2017-Jun-24 04:01N 59°42' E 019°41'5 9.9
2017-Jun-24 03:31N 59°46' E 019°35'5 9.8
2017-Jun-24 03:01N 59°50' E 019°30'5 9.9
2017-Jun-24 02:31N 59°54' E 019°24'5 9.6
2017-Jun-24 02:01N 59°58' E 019°18'5 9.5
2017-Jun-24 01:31N 60°02' E 019°13'5 9.6
2017-Jun-24 01:00N 60°06' E 019°08'5 9.7
2017-Jun-24 00:30N 60°10' E 019°02'5 9.7
2017-Jun-24 00:00N 60°15' E 019°01'5 9.8
2017-Jun-23 23:30N 60°20' E 019°00'5 9.9
2017-Jun-23 23:00N 60°25' E 018°60'510.1
2017-Jun-23 22:30N 60°30' E 018°60'5 9.9
2017-Jun-23 22:00N 60°35' E 019°02'5 9.7
2017-Jun-23 21:30N 60°39' E 019°04'5 9.6
2017-Jun-23 21:00N 60°44' E 019°06'5 9.6
2017-Jun-23 20:30N 60°49' E 019°09'5 9.7
2017-Jun-23 20:00N 60°53' E 019°12'5 9.8
2017-Jun-23 19:27N 60°58' E 019°15'510.0
2017-Jun-23 18:59N 61°03' E 019°17'510.1
2017-Jun-23 18:29N 61°08' E 019°20'610.3
2017-Jun-23 17:55N 61°13' E 019°23'410.4
2017-Jun-23 17:30N 61°18' E 019°25'510.4
2017-Jun-23 17:00N 61°23' E 019°28'510.4
2017-Jun-23 16:30N 61°28' E 019°31'510.4
2017-Jun-23 16:00N 61°33' E 019°33'510.2
2017-Jun-23 15:30N 61°38' E 019°36'510.2
2017-Jun-23 15:00N 61°43' E 019°38'1010.4
2017-Jun-23 14:00N 61°53' E 019°44'510.3
2017-Jun-23 13:30N 61°58' E 019°46'710.3
2017-Jun-23 12:52N 62°04' E 019°50'2210.3
2017-Jun-23 10:44N 62°26' E 020°00'1310.3
2017-Jun-23 09:30N 62°38' E 020°07'510.4
2017-Jun-23 09:00N 62°43' E 020°09'510.4
2017-Jun-23 08:30N 62°48' E 020°12'66 9.6
2017-Jun-23 01:39N 63°43' E 021°30'210.5
2017-Jun-23 01:30N 63°44' E 021°33'510.3
2017-Jun-23 01:00N 63°47' E 021°42'510.3
2017-Jun-23 00:31N 63°50' E 021°52'510.3
2017-Jun-23 00:00N 63°54' E 022°01'510.2
2017-Jun-22 23:30N 63°57' E 022°10'510.1
2017-Jun-22 23:00N 64°00' E 022°18'510.1
2017-Jun-22 22:30N 64°03' E 022°28'510.2
2017-Jun-22 22:00N 64°07' E 022°36'510.1
2017-Jun-22 21:30N 64°10' E 022°45'510.1
2017-Jun-22 21:00N 64°13' E 022°54'510.0
2017-Jun-22 20:31N 64°16' E 023°04'510.2
2017-Jun-22 20:00N 64°19' E 023°13'510.0
2017-Jun-22 19:30N 64°22' E 023°22'510.0
2017-Jun-22 19:00N 64°25' E 023°31'5 9.9
2017-Jun-22 18:30N 64°28' E 023°40'5 9.9
2017-Jun-22 18:00N 64°32' E 023°48'5 9.8
2017-Jun-22 17:30N 64°35' E 023°57'5 9.6
2017-Jun-22 17:00N 64°38' E 024°06'5 9.2
2017-Jun-22 16:30N 64°39' E 024°16'4 7.3
2017-Jun-22 16:00N 64°39' E 024°25'0 0.0
2017-Jun-22 15:27N 64°39' E 024°25'0 0.0
2017-Jun-22 14:57N 64°39' E 024°25'0 0.0
2017-Jun-22 14:30N 64°39' E 024°25'0 0.0
2017-Jun-22 13:30N 64°39' E 024°25'0 0.0
2017-Jun-22 13:00N 64°39' E 024°25'0 0.0
2017-Jun-22 12:30N 64°39' E 024°25'0 0.0
2017-Jun-22 12:00N 64°39' E 024°25'0 0.0
2017-Jun-22 11:30N 64°39' E 024°25'0 0.0
2017-Jun-22 11:00N 64°39' E 024°25'0 0.0
2017-Jun-22 10:27N 64°39' E 024°25'0 0.0
2017-Jun-22 10:00N 64°39' E 024°25'0 0.0
2017-Jun-22 09:30N 64°39' E 024°25'0 0.0
2017-Jun-22 09:00N 64°39' E 024°25'0 0.0
2017-Jun-22 08:30N 64°39' E 024°25'0 0.0
2017-Jun-22 08:00N 64°39' E 024°25'0 0.1
2017-Jun-22 07:30N 64°39' E 024°25'0 0.1
2017-Jun-22 06:57N 64°39' E 024°25'0 0.0
2017-Jun-22 06:30N 64°39' E 024°25'0 0.0
2017-Jun-22 06:00N 64°39' E 024°25'0 0.1
2017-Jun-22 05:21N 64°39' E 024°25'0 0.0
2017-Jun-22 05:00N 64°39' E 024°25'0 0.0
2017-Jun-22 04:30N 64°39' E 024°25'0 0.0
2017-Jun-22 04:00N 64°39' E 024°25'0 0.0
2017-Jun-22 03:30N 64°39' E 024°25'0 0.0
2017-Jun-22 03:00N 64°39' E 024°25'0 0.0
2017-Jun-22 02:30N 64°39' E 024°25'0 0.0
2017-Jun-22 02:00N 64°39' E 024°25'0 0.0
2017-Jun-22 01:30N 64°39' E 024°25'0 0.0
2017-Jun-22 01:00N 64°39' E 024°25'0 0.0
2017-Jun-22 00:30N 64°39' E 024°25'0 0.0
2017-Jun-22 00:00N 64°39' E 024°25'0 0.0
2017-Jun-21 23:30N 64°39' E 024°25'0 0.0
2017-Jun-21 23:00N 64°39' E 024°25'0 0.0
2017-Jun-21 22:30N 64°39' E 024°25'0 0.0
2017-Jun-21 22:00N 64°39' E 024°25'0 0.0
2017-Jun-21 21:30N 64°39' E 024°25'0 0.0
2017-Jun-21 21:00N 64°39' E 024°25'0 0.0
2017-Jun-21 20:30N 64°39' E 024°25'0 0.0
2017-Jun-21 20:00N 64°39' E 024°25'0 0.0
2017-Jun-21 19:30N 64°39' E 024°25'0 0.0
2017-Jun-21 19:00N 64°39' E 024°25'0 0.0
2017-Jun-21 18:30N 64°39' E 024°25'0 0.0
2017-Jun-21 18:00N 64°39' E 024°25'0 0.0
2017-Jun-21 17:27N 64°39' E 024°25'0 0.0
2017-Jun-21 16:57N 64°39' E 024°25'0 0.0
2017-Jun-21 16:30N 64°39' E 024°25'0 0.0
2017-Jun-21 16:00N 64°39' E 024°25'0 0.0
2017-Jun-21 15:30N 64°39' E 024°25'0 0.0
2017-Jun-21 15:00N 64°39' E 024°25'0 0.0
2017-Jun-21 14:30N 64°39' E 024°25'0 0.0
2017-Jun-21 13:30N 64°39' E 024°25'0 0.0
2017-Jun-21 13:00N 64°39' E 024°25'0 0.0
2017-Jun-21 12:30N 64°39' E 024°25'0 0.0
2017-Jun-21 12:00N 64°39' E 024°25'0 0.0
2017-Jun-21 11:30N 64°39' E 024°25'0 0.0
2017-Jun-21 11:00N 64°39' E 024°25'0 0.0
2017-Jun-21 10:30N 64°39' E 024°25'0 0.0
2017-Jun-21 10:00N 64°39' E 024°25'0 0.0
2017-Jun-21 09:30N 64°39' E 024°25'0 0.0
2017-Jun-21 09:00N 64°39' E 024°25'0 0.0
2017-Jun-21 08:27N 64°39' E 024°25'0 0.0
2017-Jun-21 08:00N 64°39' E 024°25'0 0.0
2017-Jun-21 07:30N 64°39' E 024°25'0 0.0
2017-Jun-21 07:00N 64°39' E 024°25'0 0.0
2017-Jun-21 06:30N 64°39' E 024°25'0 0.0
2017-Jun-21 06:00N 64°39' E 024°25'0 0.0
2017-Jun-21 05:30N 64°39' E 024°25'0 0.0
2017-Jun-21 05:00N 64°39' E 024°25'0 0.0
2017-Jun-21 04:30N 64°39' E 024°25'0 0.0
2017-Jun-21 04:00N 64°39' E 024°25'0 0.0
2017-Jun-21 03:30N 64°39' E 024°25'0 0.0
2017-Jun-21 03:00N 64°39' E 024°25'0 0.0
2017-Jun-21 02:30N 64°39' E 024°25'0 0.0
2017-Jun-21 02:00N 64°39' E 024°25'0 0.0
2017-Jun-21 01:30N 64°39' E 024°25'0 0.0
2017-Jun-21 01:00N 64°39' E 024°25'0 0.0
2017-Jun-21 00:30N 64°39' E 024°25'0 0.0
2017-Jun-21 00:00N 64°39' E 024°25'0 0.0
2017-Jun-20 23:30N 64°39' E 024°25'0 0.0
2017-Jun-20 23:00N 64°39' E 024°25'0 0.0
2017-Jun-20 22:30N 64°39' E 024°25'0 0.0
2017-Jun-20 21:59N 64°39' E 024°25'0 0.0
2017-Jun-20 21:28N 64°39' E 024°25'0 0.0
2017-Jun-20 20:59N 64°39' E 024°25'0 0.0
2017-Jun-20 20:28N 64°39' E 024°25'0 0.0
2017-Jun-20 19:59N 64°39' E 024°25'0 0.0
2017-Jun-20 19:28N 64°39' E 024°25'0 0.1
2017-Jun-20 19:00N 64°39' E 024°25'1 2.1
2017-Jun-20 18:30N 64°40' E 024°22'5 9.9
2017-Jun-20 18:00N 64°39' E 024°11'2 3.6
2017-Jun-20 17:30N 64°41' E 024°11'0 0.0
2017-Jun-20 17:00N 64°41' E 024°11'0 0.0
2017-Jun-20 16:30N 64°41' E 024°11'0 0.0
2017-Jun-20 16:00N 64°41' E 024°11'0 0.0
2017-Jun-20 15:30N 64°41' E 024°11'0 0.0
2017-Jun-20 15:00N 64°41' E 024°11'0 0.0
2017-Jun-20 14:00N 64°41' E 024°11'0 0.0
2017-Jun-20 13:30N 64°41' E 024°11'0 0.0
2017-Jun-20 13:00N 64°41' E 024°11'0 0.7
2017-Jun-20 12:30N 64°41' E 024°10'5 9.4
2017-Jun-20 12:00N 64°38' E 024°02'510.6
2017-Jun-20 11:30N 64°34' E 023°53'5 9.2
2017-Jun-20 11:00N 64°31' E 023°45'4 8.7
2017-Jun-20 10:30N 64°28' E 023°37'4 8.6
2017-Jun-20 10:00N 64°25' E 023°29'4 8.6
2017-Jun-20 09:30N 64°23' E 023°21'4 8.6
2017-Jun-20 09:00N 64°20' E 023°14'4 8.6
2017-Jun-20 08:30N 64°17' E 023°06'4 8.6
2017-Jun-20 08:00N 64°15' E 022°58'4 8.6
2017-Jun-20 07:30N 64°12' E 022°50'4 8.6
2017-Jun-20 07:00N 64°09' E 022°43'4 8.5
2017-Jun-20 06:30N 64°07' E 022°35'4 8.2
2017-Jun-20 06:00N 64°04' E 022°28'4 8.3
2017-Jun-20 05:30N 64°02' E 022°20'4 8.2
2017-Jun-20 05:00N 63°59' E 022°13'4 8.2
2017-Jun-20 04:30N 63°56' E 022°06'4 8.2
2017-Jun-20 04:00N 63°54' E 021°59'4 8.1
2017-Jun-20 03:30N 63°51' E 021°51'4 8.1
2017-Jun-20 03:00N 63°49' E 021°44'4 8.0
2017-Jun-20 02:30N 63°46' E 021°37'4 8.0
2017-Jun-20 02:00N 63°44' E 021°30'4 7.9
2017-Jun-20 01:30N 63°41' E 021°23'4 8.1
2017-Jun-20 01:00N 63°39' E 021°16'4 8.0
2017-Jun-20 00:30N 63°36' E 021°09'4 7.9
2017-Jun-20 00:00N 63°34' E 021°01'4 8.0
2017-Jun-19 23:30N 63°33' E 020°52'4 7.9
2017-Jun-19 23:00N 63°32' E 020°44'4 8.1
2017-Jun-19 22:30N 63°28' E 020°39'4 7.9
2017-Jun-19 22:00N 63°25' E 020°34'4 8.1
2017-Jun-19 21:30N 63°24' E 020°25'4 8.2
2017-Jun-19 21:00N 63°22' E 020°17'4 8.1
2017-Jun-19 20:30N 63°21' E 020°08'4 8.4
2017-Jun-19 20:00N 63°20' E 019°59'4 8.1
2017-Jun-19 19:30N 63°20' E 019°50'47 1.2
2017-Jun-18 02:46N 62°37' E 019°12'310.1
2017-Jun-18 02:30N 62°34' E 019°12'510.1
2017-Jun-18 02:00N 62°29' E 019°12'610.1
2017-Jun-18 01:26N 62°23' E 019°11'410.2
2017-Jun-18 01:00N 62°19' E 019°11'5 9.9
2017-Jun-18 00:30N 62°14' E 019°11'510.0
2017-Jun-18 00:00N 62°09' E 019°10'6210.0
2017-Jun-17 17:46N 61°06' E 019°05'510.2
2017-Jun-17 17:15N 61°01' E 019°04'310.1
2017-Jun-17 16:59N 60°59' E 019°04'510.1
2017-Jun-17 16:30N 60°54' E 019°03'5 9.9
2017-Jun-17 16:00N 60°49' E 019°03'5 9.6
2017-Jun-17 15:30N 60°44' E 019°03'5 9.7
2017-Jun-17 15:00N 60°39' E 019°02'  

Dump ship's entire track history